BDK weather

Soko Airport
Bondoukou, Zanzan, Côte d'Ivoire

Public forecast

Using degrees Celsius for public forecast. Weather courtesy of forecast.io.

Current aviation weather report (METAR) for Soko Airport

Report is more than 6 hours old.

Retrieved 2019/11/21 07:00 UTC (6 months ago):

DIBU 210700Z 00000KT 8000 NSC 23/21 Q1013 NOSIG

Closest aviation forecast (TAF) to Soko Airport

Forecast is more than 12 hours old.

Closest forecast is Kumasi Airport, 104.8 nm (194.1 km) SE. Retrieved 2020/05/25 12:48 UTC (21 hours ago):

TAF TAF DGSI 251100Z 2512/2612 23008KT 9999 BKN015 PROB40 TEMPO 2515/2519 7000 TSRA SCT025CB BECMG 2600/2602 9999 FEW014